sensor_id;sensor_type;location;lat;lon;timestamp;temperature;humidity
2955;DHT22;1487;51.470;6.938;2023-01-28T00:00:53;2.70;99.90
2955;DHT22;1487;51.470;6.938;2023-01-28T00:03:22;2.70;99.90
2955;DHT22;1487;51.470;6.938;2023-01-28T00:05:48;2.70;99.90
2955;DHT22;1487;51.470;6.938;2023-01-28T00:08:15;2.70;99.90
2955;DHT22;1487;51.470;6.938;2023-01-28T00:10:42;2.70;99.90
2955;DHT22;1487;51.470;6.938;2023-01-28T00:13:11;2.70;99.90
2955;DHT22;1487;51.470;6.938;2023-01-28T00:15:39;2.70;99.90
2955;DHT22;1487;51.470;6.938;2023-01-28T00:18:06;2.60;99.90
2955;DHT22;1487;51.470;6.938;2023-01-28T00:20:34;2.60;99.90
2955;DHT22;1487;51.470;6.938;2023-01-28T00:23:01;2.60;99.90
2955;DHT22;1487;51.470;6.938;2023-01-28T00:25:28;2.60;99.90
2955;DHT22;1487;51.470;6.938;2023-01-28T00:27:55;2.70;99.90
2955;DHT22;1487;51.470;6.938;2023-01-28T00:30:22;2.70;99.90
2955;DHT22;1487;51.470;6.938;2023-01-28T00:32:49;2.70;99.90
2955;DHT22;1487;51.470;6.938;2023-01-28T00:35:16;2.50;99.90
2955;DHT22;1487;51.470;6.938;2023-01-28T00:37:45;2.50;99.90
2955;DHT22;1487;51.470;6.938;2023-01-28T00:40:13;2.60;99.90
2955;DHT22;1487;51.470;6.938;2023-01-28T00:42:39;2.50;99.90
2955;DHT22;1487;51.470;6.938;2023-01-28T00:45:07;2.60;99.90
2955;DHT22;1487;51.470;6.938;2023-01-28T00:47:34;2.60;99.90
2955;DHT22;1487;51.470;6.938;2023-01-28T00:50:01;2.60;99.90
2955;DHT22;1487;51.470;6.938;2023-01-28T00:52:28;2.60;99.90
2955;DHT22;1487;51.470;6.938;2023-01-28T00:54:57;2.50;99.90
2955;DHT22;1487;51.470;6.938;2023-01-28T00:57:24;2.40;99.90
2955;DHT22;1487;51.470;6.938;2023-01-28T00:59:51;2.40;99.90
2955;DHT22;1487;51.470;6.938;2023-01-28T01:02:17;2.30;99.90
2955;DHT22;1487;51.470;6.938;2023-01-28T01:04:44;2.40;99.90
2955;DHT22;1487;51.470;6.938;2023-01-28T01:07:21;2.40;99.90
2955;DHT22;1487;51.470;6.938;2023-01-28T01:09:58;2.40;99.90
2955;DHT22;1487;51.470;6.938;2023-01-28T01:12:26;2.30;99.90
2955;DHT22;1487;51.470;6.938;2023-01-28T01:14:53;2.30;99.90
2955;DHT22;1487;51.470;6.938;2023-01-28T01:17:20;2.20;99.90
2955;DHT22;1487;51.470;6.938;2023-01-28T01:19:47;2.10;99.90
2955;DHT22;1487;51.470;6.938;2023-01-28T01:22:14;2.20;99.90
2955;DHT22;1487;51.470;6.938;2023-01-28T01:24:41;2.20;99.90
2955;DHT22;1487;51.470;6.938;2023-01-28T01:27:09;2.30;99.90
2955;DHT22;1487;51.470;6.938;2023-01-28T01:29:36;2.30;99.90
2955;DHT22;1487;51.470;6.938;2023-01-28T01:32:04;2.30;99.90
2955;DHT22;1487;51.470;6.938;2023-01-28T01:34:31;2.20;99.90
2955;DHT22;1487;51.470;6.938;2023-01-28T01:36:57;2.10;99.90
2955;DHT22;1487;51.470;6.938;2023-01-28T01:39:24;2.10;99.90
2955;DHT22;1487;51.470;6.938;2023-01-28T01:41:51;2.10;99.90
2955;DHT22;1487;51.470;6.938;2023-01-28T01:44:58;2.20;99.90
2955;DHT22;1487;51.470;6.938;2023-01-28T01:47:29;2.20;99.90
2955;DHT22;1487;51.470;6.938;2023-01-28T01:49:58;2.20;99.90
2955;DHT22;1487;51.470;6.938;2023-01-28T01:52:30;2.10;99.90
2955;DHT22;1487;51.470;6.938;2023-01-28T01:55:00;2.10;99.90
2955;DHT22;1487;51.470;6.938;2023-01-28T01:57:31;2.10;99.90
2955;DHT22;1487;51.470;6.938;2023-01-28T02:00:01;2.10;99.90
2955;DHT22;1487;51.470;6.938;2023-01-28T02:02:35;2.10;99.90
2955;DHT22;1487;51.470;6.938;2023-01-28T02:05:03;2.10;99.90
2955;DHT22;1487;51.470;6.938;2023-01-28T02:07:30;2.10;99.90
2955;DHT22;1487;51.470;6.938;2023-01-28T02:09:57;2.20;99.90
2955;DHT22;1487;51.470;6.938;2023-01-28T02:12:27;2.10;99.90
2955;DHT22;1487;51.470;6.938;2023-01-28T02:14:59;2.10;99.90
2955;DHT22;1487;51.470;6.938;2023-01-28T02:17:27;2.00;99.90
2955;DHT22;1487;51.470;6.938;2023-01-28T02:19:57;2.00;99.90
2955;DHT22;1487;51.470;6.938;2023-01-28T02:22:44;1.90;99.90
2955;DHT22;1487;51.470;6.938;2023-01-28T02:28:26;1.80;99.90
2955;DHT22;1487;51.470;6.938;2023-01-28T02:31:02;1.90;99.90
2955;DHT22;1487;51.470;6.938;2023-01-28T02:33:36;1.80;99.90
2955;DHT22;1487;51.470;6.938;2023-01-28T02:36:14;1.80;99.90
2955;DHT22;1487;51.470;6.938;2023-01-28T02:38:45;1.80;99.90
2955;DHT22;1487;51.470;6.938;2023-01-28T02:41:19;1.80;99.90
2955;DHT22;1487;51.470;6.938;2023-01-28T02:43:48;1.90;99.90
2955;DHT22;1487;51.470;6.938;2023-01-28T02:46:19;1.90;99.90
2955;DHT22;1487;51.470;6.938;2023-01-28T02:49:07;1.80;99.90
2955;DHT22;1487;51.470;6.938;2023-01-28T02:52:12;1.90;99.90
2955;DHT22;1487;51.470;6.938;2023-01-28T02:54:45;1.90;99.90
2955;DHT22;1487;51.470;6.938;2023-01-28T02:57:24;1.90;99.90
2955;DHT22;1487;51.470;6.938;2023-01-28T03:00:02;1.80;99.90
2955;DHT22;1487;51.470;6.938;2023-01-28T03:02:33;1.80;99.90
2955;DHT22;1487;51.470;6.938;2023-01-28T03:05:05;1.80;99.90
2955;DHT22;1487;51.470;6.938;2023-01-28T03:07:34;1.80;99.90
2955;DHT22;1487;51.470;6.938;2023-01-28T03:10:05;1.70;99.90
2955;DHT22;1487;51.470;6.938;2023-01-28T03:12:35;1.80;99.90
2955;DHT22;1487;51.470;6.938;2023-01-28T03:15:24;1.90;99.90
2955;DHT22;1487;51.470;6.938;2023-01-28T03:18:10;2.00;99.90
2955;DHT22;1487;51.470;6.938;2023-01-28T03:21:01;2.00;99.90
2955;DHT22;1487;51.470;6.938;2023-01-28T03:23:52;1.90;99.90
2955;DHT22;1487;51.470;6.938;2023-01-28T03:26:44;1.80;99.90
2955;DHT22;1487;51.470;6.938;2023-01-28T03:29:31;1.90;99.90
2955;DHT22;1487;51.470;6.938;2023-01-28T03:32:18;1.90;99.90
2955;DHT22;1487;51.470;6.938;2023-01-28T03:35:06;1.90;99.90
2955;DHT22;1487;51.470;6.938;2023-01-28T03:37:51;1.90;99.90
2955;DHT22;1487;51.470;6.938;2023-01-28T03:40:19;1.90;99.90
2955;DHT22;1487;51.470;6.938;2023-01-28T03:42:45;1.90;99.90
2955;DHT22;1487;51.470;6.938;2023-01-28T03:45:13;2.00;99.90
2955;DHT22;1487;51.470;6.938;2023-01-28T03:47:41;2.00;99.90
2955;DHT22;1487;51.470;6.938;2023-01-28T03:50:09;2.00;99.90
2955;DHT22;1487;51.470;6.938;2023-01-28T03:52:37;2.00;99.90
2955;DHT22;1487;51.470;6.938;2023-01-28T03:55:04;2.00;99.90
2955;DHT22;1487;51.470;6.938;2023-01-28T03:57:38;2.00;99.90
2955;DHT22;1487;51.470;6.938;2023-01-28T04:00:06;1.90;99.90
2955;DHT22;1487;51.470;6.938;2023-01-28T04:02:35;1.90;99.90
2955;DHT22;1487;51.470;6.938;2023-01-28T04:05:07;1.90;99.90
2955;DHT22;1487;51.470;6.938;2023-01-28T04:07:37;1.80;99.90
2955;DHT22;1487;51.470;6.938;2023-01-28T04:10:05;1.80;99.90
2955;DHT22;1487;51.470;6.938;2023-01-28T04:12:33;1.90;99.90
2955;DHT22;1487;51.470;6.938;2023-01-28T04:15:03;1.80;99.90
2955;DHT22;1487;51.470;6.938;2023-01-28T04:17:40;1.70;99.90
2955;DHT22;1487;51.470;6.938;2023-01-28T04:20:11;1.70;99.90
2955;DHT22;1487;51.470;6.938;2023-01-28T04:22:38;1.60;99.90
2955;DHT22;1487;51.470;6.938;2023-01-28T04:25:06;1.70;99.90
2955;DHT22;1487;51.470;6.938;2023-01-28T04:27:33;1.70;99.90
2955;DHT22;1487;51.470;6.938;2023-01-28T04:30:00;1.80;99.90
2955;DHT22;1487;51.470;6.938;2023-01-28T04:32:26;1.80;99.90
2955;DHT22;1487;51.470;6.938;2023-01-28T04:34:53;1.70;99.90
2955;DHT22;1487;51.470;6.938;2023-01-28T04:37:21;1.80;99.90
2955;DHT22;1487;51.470;6.938;2023-01-28T04:39:48;1.90;99.90
2955;DHT22;1487;51.470;6.938;2023-01-28T04:42:15;1.70;99.90
2955;DHT22;1487;51.470;6.938;2023-01-28T04:44:42;1.60;99.90
2955;DHT22;1487;51.470;6.938;2023-01-28T04:47:09;1.60;99.90
2955;DHT22;1487;51.470;6.938;2023-01-28T04:49:36;1.60;99.90
2955;DHT22;1487;51.470;6.938;2023-01-28T04:52:03;1.60;99.90
2955;DHT22;1487;51.470;6.938;2023-01-28T04:54:31;1.50;99.90
2955;DHT22;1487;51.470;6.938;2023-01-28T04:56:58;1.60;99.90
2955;DHT22;1487;51.470;6.938;2023-01-28T04:59:24;1.60;99.90
2955;DHT22;1487;51.470;6.938;2023-01-28T05:01:51;1.60;99.90
2955;DHT22;1487;51.470;6.938;2023-01-28T05:04:18;1.60;99.90
2955;DHT22;1487;51.470;6.938;2023-01-28T05:06:45;1.60;99.90
2955;DHT22;1487;51.470;6.938;2023-01-28T05:09:12;1.60;99.90
2955;DHT22;1487;51.470;6.938;2023-01-28T05:11:40;1.60;99.90
2955;DHT22;1487;51.470;6.938;2023-01-28T05:14:07;1.60;99.90
2955;DHT22;1487;51.470;6.938;2023-01-28T05:16:34;1.50;99.90
2955;DHT22;1487;51.470;6.938;2023-01-28T05:19:01;1.50;99.90
2955;DHT22;1487;51.470;6.938;2023-01-28T05:21:28;1.50;99.90
2955;DHT22;1487;51.470;6.938;2023-01-28T05:23:55;1.50;99.90
2955;DHT22;1487;51.470;6.938;2023-01-28T05:26:22;1.50;99.90
2955;DHT22;1487;51.470;6.938;2023-01-28T05:28:50;1.50;99.90
2955;DHT22;1487;51.470;6.938;2023-01-28T05:31:17;1.50;99.90
2955;DHT22;1487;51.470;6.938;2023-01-28T05:33:43;1.50;99.90
2955;DHT22;1487;51.470;6.938;2023-01-28T05:36:10;1.40;99.90
2955;DHT22;1487;51.470;6.938;2023-01-28T05:38:37;1.40;99.90
2955;DHT22;1487;51.470;6.938;2023-01-28T05:41:04;1.40;99.90
2955;DHT22;1487;51.470;6.938;2023-01-28T05:43:31;1.30;99.90
2955;DHT22;1487;51.470;6.938;2023-01-28T05:45:59;1.30;99.90
2955;DHT22;1487;51.470;6.938;2023-01-28T05:48:26;1.30;99.90
2955;DHT22;1487;51.470;6.938;2023-01-28T05:50:53;1.30;99.90
2955;DHT22;1487;51.470;6.938;2023-01-28T05:53:20;1.30;99.90
2955;DHT22;1487;51.470;6.938;2023-01-28T05:55:47;1.20;99.90
2955;DHT22;1487;51.470;6.938;2023-01-28T05:58:15;1.20;99.90
2955;DHT22;1487;51.470;6.938;2023-01-28T06:00:42;1.30;99.90
2955;DHT22;1487;51.470;6.938;2023-01-28T06:03:10;1.40;99.90
2955;DHT22;1487;51.470;6.938;2023-01-28T06:05:37;1.40;99.90
2955;DHT22;1487;51.470;6.938;2023-01-28T06:08:04;1.40;99.90
2955;DHT22;1487;51.470;6.938;2023-01-28T06:10:31;1.50;99.90
2955;DHT22;1487;51.470;6.938;2023-01-28T06:12:58;1.40;99.90
2955;DHT22;1487;51.470;6.938;2023-01-28T06:15:25;1.40;99.90
2955;DHT22;1487;51.470;6.938;2023-01-28T06:17:52;1.40;99.90
2955;DHT22;1487;51.470;6.938;2023-01-28T06:20:20;1.40;99.90
2955;DHT22;1487;51.470;6.938;2023-01-28T06:22:49;1.50;99.90
2955;DHT22;1487;51.470;6.938;2023-01-28T06:25:16;1.40;99.90
2955;DHT22;1487;51.470;6.938;2023-01-28T06:27:43;1.50;99.90
2955;DHT22;1487;51.470;6.938;2023-01-28T06:30:10;1.50;99.90
2955;DHT22;1487;51.470;6.938;2023-01-28T06:32:37;1.50;99.90
2955;DHT22;1487;51.470;6.938;2023-01-28T06:35:04;1.50;99.90
2955;DHT22;1487;51.470;6.938;2023-01-28T06:37:34;1.50;99.90
2955;DHT22;1487;51.470;6.938;2023-01-28T06:40:00;1.40;99.90
2955;DHT22;1487;51.470;6.938;2023-01-28T06:42:27;1.30;99.90
2955;DHT22;1487;51.470;6.938;2023-01-28T06:44:54;1.30;99.90
2955;DHT22;1487;51.470;6.938;2023-01-28T06:47:21;1.30;99.90
2955;DHT22;1487;51.470;6.938;2023-01-28T06:49:48;1.30;99.90
2955;DHT22;1487;51.470;6.938;2023-01-28T06:52:14;1.40;99.90
2955;DHT22;1487;51.470;6.938;2023-01-28T06:54:43;1.40;99.90
2955;DHT22;1487;51.470;6.938;2023-01-28T06:57:09;1.40;99.90
2955;DHT22;1487;51.470;6.938;2023-01-28T06:59:36;1.30;99.90
2955;DHT22;1487;51.470;6.938;2023-01-28T07:02:03;1.30;99.90
2955;DHT22;1487;51.470;6.938;2023-01-28T07:04:30;1.30;99.90
2955;DHT22;1487;51.470;6.938;2023-01-28T07:06:57;1.20;99.90
2955;DHT22;1487;51.470;6.938;2023-01-28T07:09:24;1.30;99.90
2955;DHT22;1487;51.470;6.938;2023-01-28T07:11:52;1.30;99.90
2955;DHT22;1487;51.470;6.938;2023-01-28T07:14:19;1.30;99.90
2955;DHT22;1487;51.470;6.938;2023-01-28T07:16:46;1.20;99.90
2955;DHT22;1487;51.470;6.938;2023-01-28T07:19:13;1.20;99.90
2955;DHT22;1487;51.470;6.938;2023-01-28T07:21:39;1.20;99.90
2955;DHT22;1487;51.470;6.938;2023-01-28T07:24:06;1.20;99.90
2955;DHT22;1487;51.470;6.938;2023-01-28T07:26:33;1.20;99.90
2955;DHT22;1487;51.470;6.938;2023-01-28T07:29:02;1.30;99.90
2955;DHT22;1487;51.470;6.938;2023-01-28T07:31:29;1.30;99.90
2955;DHT22;1487;51.470;6.938;2023-01-28T07:33:55;1.20;99.90
2955;DHT22;1487;51.470;6.938;2023-01-28T07:36:22;1.10;99.90
2955;DHT22;1487;51.470;6.938;2023-01-28T07:38:49;1.00;99.90
2955;DHT22;1487;51.470;6.938;2023-01-28T07:41:16;0.90;99.90
2955;DHT22;1487;51.470;6.938;2023-01-28T07:43:43;0.90;99.90
2955;DHT22;1487;51.470;6.938;2023-01-28T07:46:11;0.90;99.90
2955;DHT22;1487;51.470;6.938;2023-01-28T07:48:38;1.00;99.90
2955;DHT22;1487;51.470;6.938;2023-01-28T07:51:05;1.00;99.90
2955;DHT22;1487;51.470;6.938;2023-01-28T07:53:32;1.10;99.90
2955;DHT22;1487;51.470;6.938;2023-01-28T07:55:59;1.10;99.90
2955;DHT22;1487;51.470;6.938;2023-01-28T07:58:27;1.10;99.90
2955;DHT22;1487;51.470;6.938;2023-01-28T08:00:56;1.10;99.90
2955;DHT22;1487;51.470;6.938;2023-01-28T08:03:25;1.10;99.90
2955;DHT22;1487;51.470;6.938;2023-01-28T08:05:54;1.10;99.90
2955;DHT22;1487;51.470;6.938;2023-01-28T08:08:22;1.20;99.90
2955;DHT22;1487;51.470;6.938;2023-01-28T08:10:49;1.20;99.90
2955;DHT22;1487;51.470;6.938;2023-01-28T08:13:17;1.20;99.90
2955;DHT22;1487;51.470;6.938;2023-01-28T08:15:45;1.20;99.90
2955;DHT22;1487;51.470;6.938;2023-01-28T08:18:13;1.20;99.90
2955;DHT22;1487;51.470;6.938;2023-01-28T08:20:42;1.30;99.90
2955;DHT22;1487;51.470;6.938;2023-01-28T08:23:12;1.40;99.90
2955;DHT22;1487;51.470;6.938;2023-01-28T08:25:40;1.50;99.90
2955;DHT22;1487;51.470;6.938;2023-01-28T08:28:08;1.60;99.90
2955;DHT22;1487;51.470;6.938;2023-01-28T08:30:35;1.60;99.90
2955;DHT22;1487;51.470;6.938;2023-01-28T08:33:04;1.70;99.90
2955;DHT22;1487;51.470;6.938;2023-01-28T08:35:31;1.80;99.90
2955;DHT22;1487;51.470;6.938;2023-01-28T08:38:01;2.00;99.90
2955;DHT22;1487;51.470;6.938;2023-01-28T08:40:28;2.00;99.90
2955;DHT22;1487;51.470;6.938;2023-01-28T08:42:56;2.10;99.90
2955;DHT22;1487;51.470;6.938;2023-01-28T08:45:24;2.10;99.90
2955;DHT22;1487;51.470;6.938;2023-01-28T08:47:53;2.00;99.90
2955;DHT22;1487;51.470;6.938;2023-01-28T08:50:22;2.00;99.90
2955;DHT22;1487;51.470;6.938;2023-01-28T08:52:54;2.10;99.90
2955;DHT22;1487;51.470;6.938;2023-01-28T08:55:23;2.10;99.90
2955;DHT22;1487;51.470;6.938;2023-01-28T08:57:50;1.90;99.90
2955;DHT22;1487;51.470;6.938;2023-01-28T09:00:18;1.90;99.90
2955;DHT22;1487;51.470;6.938;2023-01-28T09:02:45;2.00;99.90
2955;DHT22;1487;51.470;6.938;2023-01-28T09:05:12;1.90;99.90
2955;DHT22;1487;51.470;6.938;2023-01-28T09:07:39;1.90;99.90
2955;DHT22;1487;51.470;6.938;2023-01-28T09:10:07;1.90;99.90
2955;DHT22;1487;51.470;6.938;2023-01-28T09:12:35;1.80;99.90
2955;DHT22;1487;51.470;6.938;2023-01-28T09:15:02;1.90;99.90
2955;DHT22;1487;51.470;6.938;2023-01-28T09:17:29;1.90;99.90
2955;DHT22;1487;51.470;6.938;2023-01-28T09:19:56;2.00;99.90
2955;DHT22;1487;51.470;6.938;2023-01-28T09:22:23;2.10;99.90
2955;DHT22;1487;51.470;6.938;2023-01-28T09:24:50;2.00;99.90
2955;DHT22;1487;51.470;6.938;2023-01-28T09:27:17;2.00;99.90
2955;DHT22;1487;51.470;6.938;2023-01-28T09:29:45;1.90;99.90
2955;DHT22;1487;51.470;6.938;2023-01-28T09:32:12;2.00;99.90
2955;DHT22;1487;51.470;6.938;2023-01-28T09:34:39;2.10;99.90
2955;DHT22;1487;51.470;6.938;2023-01-28T09:37:06;2.30;99.90
2955;DHT22;1487;51.470;6.938;2023-01-28T09:39:33;2.30;99.90
2955;DHT22;1487;51.470;6.938;2023-01-28T09:42:14;2.20;99.90
2955;DHT22;1487;51.470;6.938;2023-01-28T09:44:54;2.20;99.90
2955;DHT22;1487;51.470;6.938;2023-01-28T09:47:29;2.20;99.90
2955;DHT22;1487;51.470;6.938;2023-01-28T09:49:59;2.30;99.90
2955;DHT22;1487;51.470;6.938;2023-01-28T09:52:29;2.20;99.90
2955;DHT22;1487;51.470;6.938;2023-01-28T09:55:03;2.20;99.90
2955;DHT22;1487;51.470;6.938;2023-01-28T09:57:36;2.20;99.90
2955;DHT22;1487;51.470;6.938;2023-01-28T10:00:12;2.20;99.90
2955;DHT22;1487;51.470;6.938;2023-01-28T10:02:53;2.20;99.90
2955;DHT22;1487;51.470;6.938;2023-01-28T10:05:28;2.30;99.90
2955;DHT22;1487;51.470;6.938;2023-01-28T10:08:06;2.40;99.90
2955;DHT22;1487;51.470;6.938;2023-01-28T10:10:42;2.50;99.90
2955;DHT22;1487;51.470;6.938;2023-01-28T10:13:19;2.60;99.90
2955;DHT22;1487;51.470;6.938;2023-01-28T10:16:05;2.60;99.90
2955;DHT22;1487;51.470;6.938;2023-01-28T10:18:37;2.50;99.90
2955;DHT22;1487;51.470;6.938;2023-01-28T10:21:09;2.40;99.90
2955;DHT22;1487;51.470;6.938;2023-01-28T10:23:45;2.50;99.90
2955;DHT22;1487;51.470;6.938;2023-01-28T10:26:20;2.60;99.90
2955;DHT22;1487;51.470;6.938;2023-01-28T10:28:53;2.80;99.90
2955;DHT22;1487;51.470;6.938;2023-01-28T10:31:22;2.90;99.90
2955;DHT22;1487;51.470;6.938;2023-01-28T10:33:50;2.80;99.90
2955;DHT22;1487;51.470;6.938;2023-01-28T10:36:17;2.70;99.90
2955;DHT22;1487;51.470;6.938;2023-01-28T10:38:44;2.60;99.90
2955;DHT22;1487;51.470;6.938;2023-01-28T10:41:18;2.60;99.90
2955;DHT22;1487;51.470;6.938;2023-01-28T10:43:47;2.90;99.90
2955;DHT22;1487;51.470;6.938;2023-01-28T10:46:17;3.10;99.90
2955;DHT22;1487;51.470;6.938;2023-01-28T10:48:53;3.10;99.90
2955;DHT22;1487;51.470;6.938;2023-01-28T10:51:30;3.10;99.90
2955;DHT22;1487;51.470;6.938;2023-01-28T10:53:57;3.20;99.90
2955;DHT22;1487;51.470;6.938;2023-01-28T10:56:25;3.30;99.90
2955;DHT22;1487;51.470;6.938;2023-01-28T10:58:57;3.30;99.90
2955;DHT22;1487;51.470;6.938;2023-01-28T11:01:25;3.30;99.90
2955;DHT22;1487;51.470;6.938;2023-01-28T11:04:05;3.10;99.90
2955;DHT22;1487;51.470;6.938;2023-01-28T11:06:32;3.00;99.90
2955;DHT22;1487;51.470;6.938;2023-01-28T11:08:59;2.90;99.90
2955;DHT22;1487;51.470;6.938;2023-01-28T11:11:27;3.00;99.90
2955;DHT22;1487;51.470;6.938;2023-01-28T11:13:54;2.90;99.90
2955;DHT22;1487;51.470;6.938;2023-01-28T11:16:23;2.80;99.90
2955;DHT22;1487;51.470;6.938;2023-01-28T11:18:53;2.70;99.90
2955;DHT22;1487;51.470;6.938;2023-01-28T11:21:24;2.70;99.90
2955;DHT22;1487;51.470;6.938;2023-01-28T11:23:53;2.60;99.90
2955;DHT22;1487;51.470;6.938;2023-01-28T11:26:23;2.50;99.90
2955;DHT22;1487;51.470;6.938;2023-01-28T11:28:51;2.50;99.90
2955;DHT22;1487;51.470;6.938;2023-01-28T11:31:20;2.50;99.90
2955;DHT22;1487;51.470;6.938;2023-01-28T11:33:49;2.60;99.90
2955;DHT22;1487;51.470;6.938;2023-01-28T11:36:20;2.50;99.90
2955;DHT22;1487;51.470;6.938;2023-01-28T11:38:51;2.60;99.90
2955;DHT22;1487;51.470;6.938;2023-01-28T11:41:24;2.60;99.90
2955;DHT22;1487;51.470;6.938;2023-01-28T11:43:52;2.60;99.90
2955;DHT22;1487;51.470;6.938;2023-01-28T11:46:42;2.70;99.90
2955;DHT22;1487;51.470;6.938;2023-01-28T11:49:20;2.80;99.90
2955;DHT22;1487;51.470;6.938;2023-01-28T11:51:55;2.90;99.90
2955;DHT22;1487;51.470;6.938;2023-01-28T11:54:35;3.00;99.90
2955;DHT22;1487;51.470;6.938;2023-01-28T11:57:20;3.00;99.90
2955;DHT22;1487;51.470;6.938;2023-01-28T12:00:20;3.10;99.90
2955;DHT22;1487;51.470;6.938;2023-01-28T12:02:54;2.70;99.90
2955;DHT22;1487;51.470;6.938;2023-01-28T12:05:41;2.70;99.90
2955;DHT22;1487;51.470;6.938;2023-01-28T12:08:19;2.70;99.90
2955;DHT22;1487;51.470;6.938;2023-01-28T12:10:56;2.70;99.90
2955;DHT22;1487;51.470;6.938;2023-01-28T12:13:36;2.80;99.90
2955;DHT22;1487;51.470;6.938;2023-01-28T12:16:18;2.80;99.90
2955;DHT22;1487;51.470;6.938;2023-01-28T12:19:08;2.80;99.90
2955;DHT22;1487;51.470;6.938;2023-01-28T12:21:52;2.90;99.90
2955;DHT22;1487;51.470;6.938;2023-01-28T12:24:34;3.10;99.90
2955;DHT22;1487;51.470;6.938;2023-01-28T12:27:13;3.20;99.90
2955;DHT22;1487;51.470;6.938;2023-01-28T12:29:46;3.30;99.90
2955;DHT22;1487;51.470;6.938;2023-01-28T12:32:29;3.30;99.90
2955;DHT22;1487;51.470;6.938;2023-01-28T12:35:41;3.60;99.90
2955;DHT22;1487;51.470;6.938;2023-01-28T12:38:24;4.00;99.90
2955;DHT22;1487;51.470;6.938;2023-01-28T12:40:58;4.10;99.90
2955;DHT22;1487;51.470;6.938;2023-01-28T12:43:40;4.40;99.90
2955;DHT22;1487;51.470;6.938;2023-01-28T12:46:15;4.70;99.90
2955;DHT22;1487;51.470;6.938;2023-01-28T12:48:46;4.50;99.90
2955;DHT22;1487;51.470;6.938;2023-01-28T12:51:17;4.00;99.90
2955;DHT22;1487;51.470;6.938;2023-01-28T12:53:48;3.80;99.90
2955;DHT22;1487;51.470;6.938;2023-01-28T12:56:17;3.50;99.90
2955;DHT22;1487;51.470;6.938;2023-01-28T12:58:52;3.50;99.90
2955;DHT22;1487;51.470;6.938;2023-01-28T13:01:24;3.60;99.90
2955;DHT22;1487;51.470;6.938;2023-01-28T13:03:55;3.60;99.90
2955;DHT22;1487;51.470;6.938;2023-01-28T13:06:26;3.40;99.90
2955;DHT22;1487;51.470;6.938;2023-01-28T13:08:59;3.60;99.90
2955;DHT22;1487;51.470;6.938;2023-01-28T13:11:32;3.70;99.90
2955;DHT22;1487;51.470;6.938;2023-01-28T13:14:02;3.70;99.90
2955;DHT22;1487;51.470;6.938;2023-01-28T13:16:30;3.80;99.90
2955;DHT22;1487;51.470;6.938;2023-01-28T13:19:06;3.90;99.90
2955;DHT22;1487;51.470;6.938;2023-01-28T13:21:34;3.90;99.90
2955;DHT22;1487;51.470;6.938;2023-01-28T13:24:18;3.80;99.90
2955;DHT22;1487;51.470;6.938;2023-01-28T13:26:47;3.90;99.90
2955;DHT22;1487;51.470;6.938;2023-01-28T13:31:55;4.40;99.90
2955;DHT22;1487;51.470;6.938;2023-01-28T13:34:29;4.50;99.90
2955;DHT22;1487;51.470;6.938;2023-01-28T13:37:01;4.50;99.90
2955;DHT22;1487;51.470;6.938;2023-01-28T13:39:30;4.70;99.90
2955;DHT22;1487;51.470;6.938;2023-01-28T13:42:18;4.80;99.90
2955;DHT22;1487;51.470;6.938;2023-01-28T13:44:48;4.80;99.90
2955;DHT22;1487;51.470;6.938;2023-01-28T13:47:22;4.80;99.90
2955;DHT22;1487;51.470;6.938;2023-01-28T13:49:54;5.10;99.90
2955;DHT22;1487;51.470;6.938;2023-01-28T13:52:28;4.90;99.90
2955;DHT22;1487;51.470;6.938;2023-01-28T13:55:02;5.30;99.90
2955;DHT22;1487;51.470;6.938;2023-01-28T14:00:52;6.10;99.90
2955;DHT22;1487;51.470;6.938;2023-01-28T14:03:55;6.60;99.90
2955;DHT22;1487;51.470;6.938;2023-01-28T14:09:43;7.40;95.40
2955;DHT22;1487;51.470;6.938;2023-01-28T14:12:35;7.40;95.60
2955;DHT22;1487;51.470;6.938;2023-01-28T14:15:16;7.70;95.50
2955;DHT22;1487;51.470;6.938;2023-01-28T14:17:47;8.20;92.40
2955;DHT22;1487;51.470;6.938;2023-01-28T14:20:19;8.50;91.50
2955;DHT22;1487;51.470;6.938;2023-01-28T14:22:46;8.80;90.50
2955;DHT22;1487;51.470;6.938;2023-01-28T14:25:18;8.90;89.20
2955;DHT22;1487;51.470;6.938;2023-01-28T14:27:50;8.80;85.00
2955;DHT22;1487;51.470;6.938;2023-01-28T14:30:23;8.70;82.80
2955;DHT22;1487;51.470;6.938;2023-01-28T14:32:54;8.50;82.60
2955;DHT22;1487;51.470;6.938;2023-01-28T14:35:28;8.10;81.20
2955;DHT22;1487;51.470;6.938;2023-01-28T14:37:56;7.70;82.20
2955;DHT22;1487;51.470;6.938;2023-01-28T14:40:24;7.50;82.40
2955;DHT22;1487;51.470;6.938;2023-01-28T14:42:53;7.40;84.50
2955;DHT22;1487;51.470;6.938;2023-01-28T14:45:34;7.30;83.80
2955;DHT22;1487;51.470;6.938;2023-01-28T14:48:14;7.10;84.60
2955;DHT22;1487;51.470;6.938;2023-01-28T14:50:57;6.90;84.40
2955;DHT22;1487;51.470;6.938;2023-01-28T14:53:38;6.30;85.50
2955;DHT22;1487;51.470;6.938;2023-01-28T14:56:15;6.10;89.90
2955;DHT22;1487;51.470;6.938;2023-01-28T14:58:47;5.70;90.80
2955;DHT22;1487;51.470;6.938;2023-01-28T15:01:22;5.50;93.40
2955;DHT22;1487;51.470;6.938;2023-01-28T15:03:51;5.40;95.60
2955;DHT22;1487;51.470;6.938;2023-01-28T15:06:20;5.20;99.90
2955;DHT22;1487;51.470;6.938;2023-01-28T15:08:48;5.00;99.90
2955;DHT22;1487;51.470;6.938;2023-01-28T15:11:19;4.60;99.90
2955;DHT22;1487;51.470;6.938;2023-01-28T15:13:47;4.40;99.90
2955;DHT22;1487;51.470;6.938;2023-01-28T15:16:20;4.20;99.90
2955;DHT22;1487;51.470;6.938;2023-01-28T15:18:49;4.00;99.90
2955;DHT22;1487;51.470;6.938;2023-01-28T15:21:20;3.80;99.90
2955;DHT22;1487;51.470;6.938;2023-01-28T15:23:49;3.60;99.90
2955;DHT22;1487;51.470;6.938;2023-01-28T15:26:19;3.50;99.90
2955;DHT22;1487;51.470;6.938;2023-01-28T15:28:47;3.20;99.90
2955;DHT22;1487;51.470;6.938;2023-01-28T15:31:22;3.10;99.90
2955;DHT22;1487;51.470;6.938;2023-01-28T15:33:57;3.00;99.90
2955;DHT22;1487;51.470;6.938;2023-01-28T15:36:26;2.80;99.90
2955;DHT22;1487;51.470;6.938;2023-01-28T15:38:53;2.60;99.90
2955;DHT22;1487;51.470;6.938;2023-01-28T15:41:21;2.40;99.90
2955;DHT22;1487;51.470;6.938;2023-01-28T15:43:51;2.20;99.90
2955;DHT22;1487;51.470;6.938;2023-01-28T15:46:18;2.10;99.90
2955;DHT22;1487;51.470;6.938;2023-01-28T15:48:48;2.10;99.90
2955;DHT22;1487;51.470;6.938;2023-01-28T15:51:19;1.90;99.90
2955;DHT22;1487;51.470;6.938;2023-01-28T15:53:51;1.80;99.90
2955;DHT22;1487;51.470;6.938;2023-01-28T15:56:24;1.70;99.90
2955;DHT22;1487;51.470;6.938;2023-01-28T15:58:52;1.60;99.90
2955;DHT22;1487;51.470;6.938;2023-01-28T16:01:21;1.50;99.90
2955;DHT22;1487;51.470;6.938;2023-01-28T16:04:00;1.40;99.90
2955;DHT22;1487;51.470;6.938;2023-01-28T16:06:33;1.20;99.90
2955;DHT22;1487;51.470;6.938;2023-01-28T16:09:04;1.20;99.90
2955;DHT22;1487;51.470;6.938;2023-01-28T16:11:34;1.00;99.90
2955;DHT22;1487;51.470;6.938;2023-01-28T16:14:02;0.80;99.90
2955;DHT22;1487;51.470;6.938;2023-01-28T16:16:31;0.60;99.90
2955;DHT22;1487;51.470;6.938;2023-01-28T16:18:59;0.50;99.90
2955;DHT22;1487;51.470;6.938;2023-01-28T16:21:29;0.50;99.90
2955;DHT22;1487;51.470;6.938;2023-01-28T16:24:02;0.40;99.90
2955;DHT22;1487;51.470;6.938;2023-01-28T16:26:31;0.30;99.90
2955;DHT22;1487;51.470;6.938;2023-01-28T16:29:00;0.30;99.90
2955;DHT22;1487;51.470;6.938;2023-01-28T16:31:32;0.20;99.90
2955;DHT22;1487;51.470;6.938;2023-01-28T16:33:59;0.20;99.90
2955;DHT22;1487;51.470;6.938;2023-01-28T16:36:25;0.10;99.90
2955;DHT22;1487;51.470;6.938;2023-01-28T16:38:52;0.00;99.90
2955;DHT22;1487;51.470;6.938;2023-01-28T16:41:24;-0.10;99.90
2955;DHT22;1487;51.470;6.938;2023-01-28T16:43:52;-0.20;99.90
2955;DHT22;1487;51.470;6.938;2023-01-28T16:46:19;-0.30;99.90
2955;DHT22;1487;51.470;6.938;2023-01-28T16:48:45;-0.40;99.90
2955;DHT22;1487;51.470;6.938;2023-01-28T16:51:15;-0.50;99.90
2955;DHT22;1487;51.470;6.938;2023-01-28T16:53:43;-0.60;99.90